createdAt,value
2023-04-25T00:02:58.545Z,8.67
2023-04-25T00:09:00.880Z,14.67
2023-04-25T00:15:02.943Z,13.50
2023-04-25T00:21:07.191Z,27.63
2023-04-25T00:27:09.091Z,11.03
2023-04-25T00:33:11.294Z,15.93
2023-04-25T00:39:14.421Z,12.80
2023-04-25T00:45:18.075Z,11.67
2023-04-25T00:51:22.675Z,9.20
2023-04-25T00:57:24.641Z,10.77
2023-04-25T01:03:29.788Z,9.60
2023-04-25T01:09:33.030Z,10.50
2023-04-25T01:15:36.771Z,16.83
2023-04-25T01:21:38.729Z,11.40
2023-04-25T01:27:41.734Z,6.23
2023-04-25T01:33:43.668Z,15.17
2023-04-25T01:39:45.919Z,12.33
2023-04-25T01:45:49.000Z,8.87
2023-04-25T01:51:54.364Z,13.13
2023-04-25T01:57:56.275Z,10.67
2023-04-25T02:03:58.399Z,13.37
2023-04-25T02:10:00.664Z,11.83
2023-04-25T02:16:02.925Z,14.67
2023-04-25T02:22:04.984Z,14.63
2023-04-25T02:28:06.876Z,14.47
2023-04-25T02:34:08.871Z,7.13
2023-04-25T02:40:11.411Z,11.33
2023-04-25T02:46:13.313Z,14.57
2023-04-25T02:52:15.409Z,12.20
2023-04-25T02:58:17.308Z,10.83
2023-04-25T03:04:20.336Z,11.37
2023-04-25T03:10:22.290Z,20.77
2023-04-25T03:16:25.029Z,14.50
2023-04-25T03:22:26.973Z,11.93
2023-04-25T03:28:29.227Z,13.00
2023-04-25T03:34:31.603Z,14.90
2023-04-25T03:40:33.572Z,22.97
2023-04-25T03:46:35.495Z,15.30
2023-04-25T03:52:37.420Z,21.90
2023-04-25T03:58:39.336Z,26.90
2023-04-25T04:04:41.664Z,22.60
2023-04-25T04:10:43.702Z,18.13
2023-04-25T04:16:45.993Z,15.93
2023-04-25T04:22:48.180Z,10.60
2023-04-25T04:28:55.342Z,15.20
2023-04-25T04:34:57.442Z,9.57
2023-04-25T04:40:59.331Z,9.47
2023-04-25T04:47:01.441Z,5.13
2023-04-25T04:53:05.209Z,9.53
2023-04-25T04:59:08.055Z,8.10
2023-04-25T05:05:10.073Z,9.27
2023-04-25T05:11:12.373Z,9.03
2023-04-25T05:17:14.304Z,8.77
2023-04-25T05:23:16.435Z,14.87
2023-04-25T05:29:18.318Z,13.63
2023-04-25T05:35:20.264Z,10.90
2023-04-25T05:41:22.176Z,17.33
2023-04-25T05:47:24.109Z,15.77
2023-04-25T05:53:25.993Z,18.57
2023-04-25T05:59:27.899Z,11.90
2023-04-25T06:05:30.325Z,10.17
2023-04-25T06:11:32.347Z,15.67
2023-04-25T06:17:34.704Z,14.73
2023-04-25T06:23:36.620Z,13.23
2023-04-25T06:29:38.544Z,13.80
2023-04-25T06:35:40.489Z,10.00
2023-04-25T06:41:42.368Z,14.43
2023-04-25T06:47:44.277Z,12.33
2023-04-25T06:53:46.255Z,8.03
2023-04-25T06:59:48.144Z,14.03
2023-04-25T07:05:50.180Z,14.30
2023-04-25T07:11:52.129Z,12.23
2023-04-25T07:17:54.056Z,7.20
2023-04-25T07:23:56.001Z,10.53
2023-04-25T07:29:58.613Z,13.00
2023-04-25T07:36:00.824Z,13.70
2023-04-25T07:42:03.334Z,21.30
2023-04-25T07:48:05.497Z,9.33
2023-04-25T07:54:07.887Z,10.33
2023-04-25T08:00:10.574Z,16.47
2023-04-25T08:06:12.695Z,10.60
2023-04-25T08:12:14.972Z,8.83
2023-04-25T08:18:17.726Z,9.23
2023-04-25T08:24:19.879Z,7.87
2023-04-25T08:30:22.094Z,8.30
2023-04-25T08:42:36.237Z,11.43
2023-04-25T08:48:38.376Z,9.20
2023-04-25T08:54:48.281Z,8.67
2023-04-25T09:00:51.991Z,8.93
2023-04-25T09:06:53.914Z,15.10
2023-04-25T09:13:21.644Z,9.23
2023-04-25T09:19:38.926Z,6.70
2023-04-25T09:25:43.985Z,11.50
2023-04-25T09:31:45.889Z,8.57
2023-04-25T09:37:47.830Z,12.43
2023-04-25T09:43:51.463Z,10.10
2023-04-25T09:49:56.006Z,10.70
2023-04-25T09:56:00.762Z,5.70
2023-04-25T10:02:03.688Z,7.60
2023-04-25T10:08:07.626Z,5.20
2023-04-25T10:14:10.769Z,7.07
2023-04-25T10:20:13.966Z,9.77
2023-04-25T10:26:17.270Z,4.70
2023-04-25T10:32:19.481Z,4.53
2023-04-25T10:38:21.558Z,7.07
2023-04-25T10:44:23.609Z,3.60
2023-04-25T10:50:40.716Z,10.70
2023-04-25T10:56:45.552Z,9.03
2023-04-25T11:02:54.221Z,11.33
2023-04-25T11:08:56.314Z,2.23
2023-04-25T11:15:06.903Z,6.30
2023-04-25T11:21:09.110Z,8.53
2023-04-25T11:27:11.120Z,9.80
2023-04-25T11:33:13.045Z,2.80
2023-04-25T11:39:16.240Z,8.10
2023-04-25T11:45:19.713Z,11.73
2023-04-25T11:51:21.828Z,8.80
2023-04-25T11:57:23.748Z,4.73
2023-04-25T12:03:28.323Z,9.60
2023-04-25T12:09:34.835Z,8.13
2023-04-25T12:15:37.497Z,9.10
2023-04-25T12:21:50.508Z,6.27
2023-04-25T12:28:24.935Z,6.83
2023-04-25T12:34:26.937Z,5.97
2023-04-25T12:40:28.816Z,4.50
2023-04-25T12:46:30.890Z,7.27
2023-04-25T12:52:32.825Z,3.90
2023-04-25T12:58:35.223Z,6.17
2023-04-25T13:04:37.312Z,2.90
2023-04-25T13:10:40.386Z,4.00
2023-04-25T13:16:42.576Z,8.03
2023-04-25T13:22:46.623Z,7.70
2023-04-25T13:28:48.554Z,3.57
2023-04-25T13:34:51.750Z,8.43
2023-04-25T13:40:54.321Z,6.87
2023-04-25T13:46:56.373Z,5.20
2023-04-25T13:52:58.306Z,3.67
2023-04-25T13:59:00.211Z,4.50
2023-04-25T14:05:04.358Z,5.80
2023-04-25T14:11:06.552Z,2.67
2023-04-25T14:17:09.753Z,5.43
2023-04-25T14:23:11.688Z,4.60
2023-04-25T14:29:13.990Z,3.27
2023-04-25T14:35:16.045Z,4.03
2023-04-25T14:41:18.013Z,2.73
2023-04-25T14:47:19.929Z,2.63
2023-04-25T14:53:21.806Z,4.60
2023-04-25T14:59:24.329Z,2.30
2023-04-25T15:05:26.539Z,2.30
2023-04-25T15:11:28.619Z,4.27
2023-04-25T15:17:32.114Z,7.50
2023-04-25T15:23:34.123Z,3.80
2023-04-25T15:29:36.755Z,6.23
2023-04-25T15:35:38.696Z,3.63
2023-04-25T15:41:40.647Z,9.70
2023-04-25T15:47:43.044Z,9.10
2023-04-25T15:53:44.970Z,2.63
2023-04-25T15:59:49.020Z,5.03
2023-04-25T16:05:51.092Z,6.43
2023-04-25T16:11:53.258Z,3.10
2023-04-25T16:17:55.217Z,3.80
2023-04-25T16:23:57.160Z,6.53
2023-04-25T16:29:59.105Z,3.43
2023-04-25T16:36:01.013Z,3.13
2023-04-25T16:42:04.927Z,4.40
2023-04-25T16:48:07.153Z,3.00
2023-04-25T16:54:09.176Z,4.13
2023-04-25T17:00:12.990Z,2.90
2023-04-25T17:06:15.026Z,4.10
2023-04-25T17:12:19.550Z,6.70
2023-04-25T17:18:24.479Z,3.10
2023-04-25T17:24:26.591Z,6.47
2023-04-25T17:30:28.479Z,2.23
2023-04-25T17:36:30.810Z,2.97
2023-04-25T17:42:32.752Z,6.40
2023-04-25T17:48:34.672Z,3.70
2023-04-25T17:54:36.595Z,3.63
2023-04-25T18:00:39.123Z,3.00
2023-04-25T18:06:41.414Z,9.03
2023-04-25T18:12:43.353Z,10.43
2023-04-25T18:18:52.825Z,14.50
2023-04-25T18:24:55.221Z,4.30
2023-04-25T18:30:57.979Z,3.53
2023-04-25T18:36:59.897Z,6.80
2023-04-25T18:43:01.792Z,4.43
2023-04-25T18:49:04.043Z,7.17
2023-04-25T18:55:06.560Z,4.40
2023-04-25T19:01:09.003Z,3.50
2023-04-25T19:07:11.217Z,7.07
2023-04-25T19:13:13.906Z,1.87
2023-04-25T19:19:15.776Z,4.37
2023-04-25T19:25:17.766Z,5.23
2023-04-25T19:31:19.934Z,7.27
2023-04-25T19:37:21.930Z,5.73
2023-04-25T19:43:23.878Z,6.87
2023-04-25T19:49:27.107Z,6.47
2023-04-25T19:55:29.128Z,5.13
2023-04-25T20:01:31.185Z,7.57
2023-04-25T20:07:33.362Z,8.37
2023-04-25T20:13:35.257Z,6.93
2023-04-25T20:19:38.215Z,9.70
2023-04-25T20:25:40.549Z,4.90
2023-04-25T20:31:42.617Z,9.20
2023-04-25T20:37:44.714Z,4.53
2023-04-25T20:43:47.313Z,7.93
2023-04-25T20:49:49.917Z,5.53
2023-04-25T20:55:52.271Z,2.63
2023-04-25T21:01:54.753Z,7.17
2023-04-25T21:07:57.545Z,4.73
2023-04-25T21:13:59.456Z,6.33
2023-04-25T21:20:01.350Z,8.07
2023-04-25T21:26:03.303Z,5.90
2023-04-25T21:32:06.238Z,3.23
2023-04-25T21:38:08.154Z,5.10
2023-04-25T21:44:12.478Z,3.23
2023-04-25T21:50:15.214Z,6.70
2023-04-25T21:56:17.101Z,5.17
2023-04-25T22:02:19.340Z,2.90
2023-04-25T22:08:21.877Z,9.17
2023-04-25T22:14:25.114Z,5.67
2023-04-25T22:20:27.976Z,4.47
2023-04-25T22:26:30.205Z,5.57
2023-04-25T22:32:32.183Z,6.40
2023-04-25T22:38:34.121Z,5.73
2023-04-25T22:44:36.666Z,6.20
2023-04-25T22:50:40.576Z,3.47
2023-04-25T22:56:42.462Z,4.50
2023-04-25T23:02:46.230Z,7.07
2023-04-25T23:08:48.714Z,4.90
2023-04-25T23:14:52.690Z,6.43
2023-04-25T23:20:54.577Z,4.93
2023-04-25T23:26:56.793Z,8.27
2023-04-25T23:32:58.779Z,5.40
2023-04-25T23:39:02.123Z,5.77
2023-04-25T23:45:06.784Z,6.87
2023-04-25T23:51:08.710Z,5.50
2023-04-25T23:57:12.187Z,6.90
